Time;durP1;ratioP1;P1;durP2;ratioP2;P2;SDS_P1;SDS_P2;PMS_P1;PMS_P2;Temp;Humidity;BMP_temperature;BMP_pressure;BME280_temperature;BME280_humidity;BME280_pressure;Samples;Min_cycle;Max_cycle;Signal;HPM_P1;HPM_P2
2022/03/17 00:02:18;;;;;;;212.10;142.20;;;;;;;1.18;85.66;100215.70;105115;1271;61938;-76
2022/03/17 00:04:44;;;;;;;214.70;140.00;;;;;;;1.15;85.71;100215.04;105293;1271;62190;-76
2022/03/17 00:07:12;;;;;;;222.20;141.60;;;;;;;1.12;85.93;100216.11;105272;1271;69388;-75
2022/03/17 00:09:39;;;;;;;220.30;144.20;;;;;;;1.09;86.09;100216.14;105289;1270;74227;-77
2022/03/17 00:12:06;;;;;;;220.00;145.80;;;;;;;1.05;86.20;100220.55;105273;1270;62152;-74
2022/03/17 00:14:33;;;;;;;219.60;144.20;;;;;;;1.01;86.33;100218.30;105282;1271;62110;-76
2022/03/17 00:16:59;;;;;;;208.60;139.50;;;;;;;0.98;86.44;100219.03;105319;1270;62129;-75
2022/03/17 00:19:26;;;;;;;202.90;135.50;;;;;;;0.96;86.64;100225.52;105249;1271;62226;-75
2022/03/17 00:21:53;;;;;;;193.30;129.80;;;;;;;0.96;86.65;100224.81;104963;1271;73638;-75
2022/03/17 00:24:19;;;;;;;193.30;134.10;;;;;;;0.95;86.77;100228.48;105287;1271;62187;-76
2022/03/17 00:26:45;;;;;;;203.50;139.20;;;;;;;0.95;86.79;100233.40;105294;1270;62178;-75
2022/03/17 00:29:12;;;;;;;204.90;139.80;;;;;;;0.92;86.79;100233.08;104978;1274;62642;-75
2022/03/17 00:31:39;;;;;;;210.00;138.70;;;;;;;0.84;86.86;100240.83;105241;1270;62100;-76
2022/03/17 00:34:07;;;;;;;204.70;139.60;;;;;;;0.75;86.91;100238.96;105268;1271;73101;-75
2022/03/17 00:36:35;;;;;;;206.40;138.20;;;;;;;0.67;86.99;100241.48;105254;1270;62198;-75
2022/03/17 00:39:04;;;;;;;201.20;140.40;;;;;;;0.60;87.20;100242.39;105295;1271;62014;-75
2022/03/17 00:41:31;;;;;;;189.60;138.10;;;;;;;0.51;87.32;100249.45;105228;1271;76232;-75
2022/03/17 00:43:58;;;;;;;189.30;136.60;;;;;;;0.44;87.56;100249.66;105258;1271;70361;-75
2022/03/17 00:46:24;;;;;;;189.30;127.50;;;;;;;0.40;87.62;100254.58;105269;1271;62079;-75
2022/03/17 00:48:51;;;;;;;174.70;123.50;;;;;;;0.36;87.82;100253.89;104929;1271;62251;-75
2022/03/17 00:51:17;;;;;;;176.40;127.40;;;;;;;0.36;88.18;100251.10;105268;1270;62086;-75
2022/03/17 00:53:46;;;;;;;190.30;130.20;;;;;;;0.37;88.18;100251.97;105090;1271;227092;-76
2022/03/17 00:56:13;;;;;;;183.20;128.30;;;;;;;0.37;88.47;100253.90;105249;1271;69379;-76
2022/03/17 00:58:40;;;;;;;189.30;130.20;;;;;;;0.33;88.55;100252.17;105266;1271;73256;-74
2022/03/17 01:01:08;;;;;;;190.00;134.60;;;;;;;0.31;88.79;100247.29;105199;1271;62156;-76
2022/03/17 01:03:34;;;;;;;184.00;131.70;;;;;;;0.32;89.15;100244.83;105270;1271;62214;-75
2022/03/17 01:06:01;;;;;;;158.00;112.90;;;;;;;0.33;89.44;100245.17;105262;1271;62181;-74
2022/03/17 01:08:29;;;;;;;156.20;109.80;;;;;;;0.32;89.87;100244.66;105252;1271;62076;-74
2022/03/17 01:10:55;;;;;;;148.60;97.50;;;;;;;0.37;90.64;100247.42;105252;1270;74131;-76
2022/03/17 01:13:21;;;;;;;138.50;97.00;;;;;;;0.47;91.18;100243.89;105210;1271;62105;-75
2022/03/17 01:15:48;;;;;;;124.70;88.00;;;;;;;0.60;91.38;100240.65;105260;1271;62151;-75
2022/03/17 01:18:14;;;;;;;120.70;84.10;;;;;;;0.73;91.21;100240.02;105261;1271;62194;-76
2022/03/17 01:20:41;;;;;;;122.10;85.50;;;;;;;0.85;91.19;100246.60;105268;1271;62060;-76
2022/03/17 01:23:08;;;;;;;129.60;88.80;;;;;;;0.95;90.79;100244.27;105228;1269;61581;-76
2022/03/17 01:25:35;;;;;;;117.30;84.00;;;;;;;1.00;90.60;100242.98;105463;1271;62551;-76
2022/03/17 01:28:01;;;;;;;120.80;83.20;;;;;;;1.03;90.35;100240.69;105291;1271;62188;-75
2022/03/17 01:30:28;;;;;;;117.20;77.80;;;;;;;1.05;90.46;100238.05;105270;1271;77205;-76
2022/03/17 01:32:54;;;;;;;110.80;77.90;;;;;;;1.10;90.32;100232.05;105262;1271;62066;-75
2022/03/17 01:35:21;;;;;;;104.50;73.30;;;;;;;1.14;90.37;100227.11;104980;1272;62199;-75
2022/03/17 01:37:47;;;;;;;116.50;75.90;;;;;;;1.20;90.24;100223.73;105227;1271;62518;-75
2022/03/17 01:40:14;;;;;;;101.10;71.90;;;;;;;1.23;90.05;100223.70;105216;1271;62734;-75
2022/03/17 01:42:41;;;;;;;102.30;70.90;;;;;;;1.27;89.98;100223.49;105220;1271;77136;-76
2022/03/17 01:45:09;;;;;;;100.90;72.00;;;;;;;1.33;90.23;100224.33;105252;1271;69414;-76
2022/03/17 01:47:37;;;;;;;102.50;69.30;;;;;;;1.37;89.95;100227.08;105214;1271;73897;-76
2022/03/17 01:50:10;;;;;;;106.30;75.00;;;;;;;1.42;90.03;100229.85;105335;1271;62176;-75
2022/03/17 01:52:38;;;;;;;104.00;74.00;;;;;;;1.43;89.78;100238.23;105259;1271;62110;-76
2022/03/17 01:55:06;;;;;;;105.80;69.20;;;;;;;1.42;89.78;100238.42;105300;1271;75951;-75
2022/03/17 01:57:33;;;;;;;104.60;69.90;;;;;;;1.42;89.60;100238.61;104900;1272;70374;-77
2022/03/17 02:00:00;;;;;;;98.10;67.70;;;;;;;1.41;89.56;100237.19;105240;1270;62617;-74
2022/03/17 02:02:27;;;;;;;101.60;69.20;;;;;;;1.42;89.76;100241.21;105318;1271;62081;-75
2022/03/17 02:04:53;;;;;;;101.00;70.50;;;;;;;1.46;89.53;100235.05;105287;1270;62162;-76
2022/03/17 02:07:21;;;;;;;100.80;70.90;;;;;;;1.45;89.41;100242.06;105282;1271;62139;-75
2022/03/17 02:09:48;;;;;;;106.20;73.10;;;;;;;1.43;89.44;100247.34;105281;1271;69175;-75
2022/03/17 02:15:07;;;;;;;102.90;70.20;;;;;;;1.43;89.71;100255.05;105254;1271;62120;-75
2022/03/17 02:17:44;;;;;;;107.70;72.00;;;;;;;1.42;89.54;100250.85;105522;1270;62058;-75
2022/03/17 02:20:13;;;;;;;96.90;67.50;;;;;;;1.42;89.40;100247.88;105231;1271;77132;-76
2022/03/17 02:22:52;;;;;;;101.80;72.30;;;;;;;1.41;89.34;100252.25;105398;1271;70408;-75
2022/03/17 02:25:35;;;;;;;103.90;73.00;;;;;;;1.38;89.50;100250.53;105392;1271;73075;-75
2022/03/17 02:28:07;;;;;;;100.80;72.20;;;;;;;1.37;89.57;100250.55;105299;1271;62284;-75
2022/03/17 02:30:37;;;;;;;103.60;73.60;;;;;;;1.34;89.65;100251.80;105433;1269;62112;-75
2022/03/17 02:33:09;;;;;;;102.10;73.30;;;;;;;1.32;89.92;100252.00;105234;1270;76663;-75
2022/03/17 02:35:40;;;;;;;98.20;70.90;;;;;;;1.28;89.94;100248.70;105539;1270;68457;-75
2022/03/17 02:38:07;;;;;;;100.10;71.10;;;;;;;1.26;89.68;100248.73;105289;1271;73744;-78
2022/03/17 02:40:36;;;;;;;101.50;69.70;;;;;;;1.23;89.57;100251.73;105285;1271;61959;-75
2022/03/17 02:43:04;;;;;;;99.60;70.90;;;;;;;1.19;89.70;100253.33;105270;1271;62168;-75
2022/03/17 02:45:32;;;;;;;99.90;66.30;;;;;;;1.17;89.81;100254.56;105335;1270;76042;-75
2022/03/17 02:47:59;;;;;;;100.60;69.50;;;;;;;1.15;90.05;100255.11;104973;1271;69249;-75
2022/03/17 02:50:25;;;;;;;101.80;69.40;;;;;;;1.11;89.85;100257.25;105235;1271;62011;-75
2022/03/17 02:52:52;;;;;;;103.90;70.60;;;;;;;1.06;89.73;100260.96;105232;1270;62159;-74
2022/03/17 02:55:18;;;;;;;100.80;69.50;;;;;;;1.03;89.82;100266.23;103847;1270;1005987;-75
2022/03/17 02:57:45;;;;;;;95.00;68.60;;;;;;;0.99;89.92;100267.14;105259;1271;62050;-76
2022/03/17 03:00:27;;;;;;;97.90;69.80;;;;;;;0.94;90.09;100273.47;105290;1270;69091;-76
2022/03/17 03:02:54;;;;;;;98.30;66.20;;;;;;;0.91;90.12;100281.02;105288;1271;73115;-76
2022/03/17 03:05:22;;;;;;;92.40;63.70;;;;;;;0.91;90.39;100286.80;105213;1271;62207;-76
2022/03/17 03:07:49;;;;;;;92.30;63.90;;;;;;;0.93;90.39;100294.31;105102;1272;61974;-75
2022/03/17 03:10:15;;;;;;;96.70;64.40;;;;;;;0.93;90.27;100300.61;105335;1270;76994;-75
2022/03/17 03:12:42;;;;;;;94.50;62.20;;;;;;;0.91;90.35;100304.12;105320;1270;62064;-75
2022/03/17 03:15:09;;;;;;;99.90;67.20;;;;;;;0.91;90.52;100301.34;105396;1271;62069;-75
2022/03/17 03:17:36;;;;;;;96.90;64.10;;;;;;;0.90;90.38;100303.60;105456;1270;62208;-75
2022/03/17 03:20:03;;;;;;;94.20;66.80;;;;;;;0.88;90.35;100302.73;105489;1270;62181;-75
2022/03/17 03:22:33;;;;;;;93.10;64.70;;;;;;;0.87;90.39;100307.98;106223;1270;76019;-75
2022/03/17 03:24:59;;;;;;;;;;;;;;;0.85;90.32;100308.71;106773;1271;69375;-76
2022/03/17 03:27:27;;;;;;;88.20;63.70;;;;;;;0.83;90.43;100312.05;106459;1270;62185;-77
2022/03/17 03:29:58;;;;;;;103.20;63.10;;;;;;;0.82;90.65;100311.52;106453;1270;62495;-75
2022/03/17 03:32:26;;;;;;;93.80;64.90;;;;;;;0.83;90.51;100310.82;105572;1270;61932;-75
2022/03/17 03:34:54;;;;;;;101.10;65.20;;;;;;;0.80;90.59;100311.36;105355;1271;76161;-76
2022/03/17 03:37:23;;;;;;;94.70;67.70;;;;;;;0.78;90.57;100308.56;105365;1270;69216;-74
2022/03/17 03:39:57;;;;;;;101.50;69.80;;;;;;;0.74;90.59;100305.63;105099;1273;73419;-75
2022/03/17 03:42:25;;;;;;;101.20;66.30;;;;;;;0.69;90.72;100306.35;105328;1270;62075;-76
2022/03/17 03:44:52;;;;;;;96.60;68.70;;;;;;;0.65;90.82;100306.90;105332;1270;62121;-74
2022/03/17 03:47:19;;;;;;;104.90;68.60;;;;;;;0.61;90.85;100308.31;105269;1270;62098;-77
2022/03/17 03:49:46;;;;;;;95.30;65.60;;;;;;;0.57;91.12;100305.89;105252;1270;70348;-77
2022/03/17 03:52:14;;;;;;;94.20;64.20;;;;;;;0.55;91.17;100311.33;105242;1270;73274;-75
2022/03/17 03:54:41;;;;;;;97.00;63.60;;;;;;;0.53;91.44;100307.66;105266;1270;62060;-75
2022/03/17 03:57:08;;;;;;;92.20;64.90;;;;;;;0.51;91.58;100316.59;105251;1270;62066;-75
2022/03/17 03:59:35;;;;;;;95.10;66.20;;;;;;;0.52;91.47;100319.39;105260;1270;77180;-75
2022/03/17 04:02:05;;;;;;;99.90;65.50;;;;;;;0.51;91.56;100324.98;105244;1270;70180;-75
2022/03/17 04:04:34;;;;;;;94.50;64.70;;;;;;;0.50;91.47;100330.41;105258;1271;73276;-75
2022/03/17 04:07:03;;;;;;;94.80;65.30;;;;;;;0.48;91.60;100335.66;105315;1271;62043;-75
2022/03/17 04:09:35;;;;;;;95.80;66.70;;;;;;;0.46;91.67;100335.85;105178;1270;62078;-74
2022/03/17 04:12:03;;;;;;;98.90;65.70;;;;;;;0.43;91.74;100339.52;105364;1270;75411;-74
2022/03/17 04:14:31;;;;;;;94.40;66.20;;;;;;;0.40;91.75;100343.02;105241;1270;69832;-75
2022/03/17 04:16:59;;;;;;;104.10;66.80;;;;;;;0.36;91.79;100343.23;105232;1270;74483;-75
2022/03/17 04:19:27;;;;;;;93.40;64.60;;;;;;;0.34;91.77;100345.69;105235;1270;61967;-76
2022/03/17 04:21:54;;;;;;;99.70;64.20;;;;;;;0.32;91.78;100342.19;105263;1270;62085;-76
2022/03/17 04:24:22;;;;;;;92.20;64.30;;;;;;;0.30;91.89;100342.73;105316;1270;76866;-76
2022/03/17 04:26:48;;;;;;;94.80;64.30;;;;;;;0.27;91.98;100342.39;105428;1270;70806;-76
2022/03/17 04:29:16;;;;;;;93.60;63.20;;;;;;;0.28;92.09;100345.88;105257;1270;74796;-75
2022/03/17 04:31:43;;;;;;;87.00;61.40;;;;;;;0.27;92.04;100350.43;105235;1270;62169;-76
2022/03/17 04:34:11;;;;;;;93.90;63.40;;;;;;;0.27;92.12;100355.33;105327;1270;62222;-75
2022/03/17 04:36:38;;;;;;;91.10;62.00;;;;;;;0.26;92.22;100357.59;105245;1270;76293;-75
2022/03/17 04:39:06;;;;;;;102.30;68.70;;;;;;;0.23;92.23;100361.27;105267;1270;70314;-75
2022/03/17 04:41:32;;;;;;;90.50;63.90;;;;;;;0.20;92.24;100364.08;105246;1270;73277;-75
2022/03/17 04:43:59;;;;;;;94.40;65.00;;;;;;;0.15;92.30;100368.30;105286;1270;62102;-75
2022/03/17 04:46:26;;;;;;;99.30;66.50;;;;;;;0.11;92.40;100366.55;105281;1270;62200;-76
2022/03/17 04:48:52;;;;;;;92.90;64.10;;;;;;;0.07;92.21;100368.84;105289;1270;77164;-75
2022/03/17 04:51:19;;;;;;;97.80;65.70;;;;;;;0.03;92.46;100369.89;105203;1271;62236;-75
2022/03/17 04:53:45;;;;;;;90.10;61.20;;;;;;;0.01;92.88;100373.05;105219;1270;62184;-75
2022/03/17 04:56:14;;;;;;;92.70;62.50;;;;;;;0.01;92.87;100373.05;105299;1270;62187;-74
2022/03/17 04:58:42;;;;;;;94.80;63.70;;;;;;;0.01;93.15;100371.64;105398;1270;62185;-76
2022/03/17 05:01:10;;;;;;;92.30;61.80;;;;;;;0.02;93.03;100376.35;105236;1270;77143;-76
2022/03/17 05:03:37;;;;;;;90.50;64.10;;;;;;;0.03;92.98;100373.02;105374;1270;70153;-76
2022/03/17 05:06:04;;;;;;;95.80;64.50;;;;;;;0.03;93.00;100371.27;105252;1270;74527;-75
2022/03/17 05:08:35;;;;;;;90.50;61.20;;;;;;;0.04;93.05;100373.90;105256;1270;62114;-75
2022/03/17 05:11:03;;;;;;;95.60;64.90;;;;;;;0.07;93.22;100370.40;105261;1270;62104;-75
2022/03/17 05:13:30;;;;;;;90.20;62.90;;;;;;;0.17;93.15;100368.80;105237;1270;75354;-74
2022/03/17 05:15:56;;;;;;;95.80;65.60;;;;;;;0.22;92.91;100360.58;105261;1270;70458;-75
2022/03/17 05:18:22;;;;;;;91.30;64.30;;;;;;;0.30;92.96;100361.27;105003;1272;62147;-76
2022/03/17 05:20:49;;;;;;;90.60;61.40;;;;;;;0.41;92.72;100363.31;105243;1270;62480;-75
2022/03/17 05:23:18;;;;;;;91.60;62.90;;;;;;;0.54;92.31;100361.69;105276;1270;61964;-75
2022/03/17 05:25:46;;;;;;;92.30;62.30;;;;;;;0.64;91.97;100358.84;105283;1270;75944;-76
2022/03/17 05:28:12;;;;;;;90.10;63.40;;;;;;;0.69;91.75;100362.50;105295;1270;68846;-76
2022/03/17 05:30:41;;;;;;;98.90;68.30;;;;;;;0.73;91.54;100362.30;105262;1271;74217;-75
2022/03/17 05:33:09;;;;;;;92.40;65.40;;;;;;;0.87;90.99;100359.09;105344;1270;62185;-75
2022/03/17 05:35:36;;;;;;;93.30;65.40;;;;;;;0.98;90.70;100356.23;103422;1270;1015891;-75
2022/03/17 05:38:02;;;;;;;85.60;61.10;;;;;;;1.07;90.34;100356.69;105284;1270;75070;-75
2022/03/17 05:40:29;;;;;;;90.30;63.70;;;;;;;1.18;89.99;100351.71;105265;1270;69380;-75
2022/03/17 05:42:59;;;;;;;83.60;60.10;;;;;;;1.29;89.53;100349.18;105286;1270;62009;-75
2022/03/17 05:45:27;;;;;;;85.60;61.10;;;;;;;1.37;89.18;100352.96;105010;1271;62095;-76
2022/03/17 05:47:59;;;;;;;95.60;64.00;;;;;;;1.48;88.90;100351.30;105276;1270;61977;-75
2022/03/17 05:50:31;;;;;;;85.70;61.70;;;;;;;1.60;88.49;100354.89;105420;1270;76931;-75
2022/03/17 05:52:58;;;;;;;92.70;68.40;;;;;;;1.68;87.80;100358.14;105284;1270;70408;-78
2022/03/17 05:55:26;;;;;;;87.10;67.10;;;;;;;1.76;87.49;100359.66;105252;1270;72956;-75
2022/03/17 05:57:54;;;;;;;90.40;66.80;;;;;;;1.74;87.14;100359.52;105379;1270;62114;-77
2022/03/17 06:00:24;;;;;;;89.60;62.80;;;;;;;1.73;86.94;100359.16;105334;1268;62044;-76
2022/03/17 06:02:51;;;;;;;82.50;61.30;;;;;;;1.75;86.73;100360.71;104681;1270;1003060;-75
2022/03/17 06:05:19;;;;;;;85.30;63.20;;;;;;;1.65;86.81;100360.63;105271;1270;71102;-76
2022/03/17 06:07:48;;;;;;;86.30;64.60;;;;;;;1.59;87.04;100369.79;105275;1270;74996;-76
2022/03/17 06:10:23;;;;;;;87.80;64.60;;;;;;;1.58;87.19;100365.25;105364;1269;62097;-76
2022/03/17 06:12:54;;;;;;;86.60;62.20;;;;;;;1.57;87.09;100376.81;105142;1269;62118;-76
2022/03/17 06:15:23;;;;;;;88.50;64.80;;;;;;;1.53;87.01;100380.17;105339;1270;76881;-75
2022/03/17 06:18:00;;;;;;;88.80;63.70;;;;;;;1.53;87.05;100383.68;105345;1269;70375;-75
2022/03/17 06:20:29;;;;;;;88.10;62.50;;;;;;;1.50;86.98;100388.08;105352;1270;74119;-75
2022/03/17 06:22:59;;;;;;;85.80;63.00;;;;;;;1.49;87.05;100387.38;105253;1270;62193;-75
2022/03/17 06:25:27;;;;;;;85.60;58.10;;;;;;;1.47;86.89;100386.16;105295;1269;62160;-74
2022/03/17 06:27:54;;;;;;;78.10;59.50;;;;;;;1.48;86.91;100392.64;105268;1270;77484;-75
2022/03/17 06:30:26;;;;;;;79.00;57.20;;;;;;;1.51;86.93;100395.95;105253;1269;69399;-76
2022/03/17 06:32:54;;;;;;;79.10;57.50;;;;;;;1.57;86.77;100399.94;105271;1270;73442;-77
2022/03/17 06:35:22;;;;;;;81.70;60.50;;;;;;;1.57;86.55;100404.14;105432;1270;62041;-76
2022/03/17 06:37:53;;;;;;;84.20;59.20;;;;;;;1.57;86.45;100405.20;105312;1270;62182;-75
2022/03/17 06:40:20;;;;;;;;;;;;;;;1.59;86.38;100410.42;105423;1270;77016;-76
2022/03/17 06:42:48;;;;;;;80.80;57.20;;;;;;;1.63;86.50;100409.70;105274;1270;69231;-76
2022/03/17 06:45:16;;;;;;;81.50;57.40;;;;;;;1.68;86.28;100410.70;105355;1270;74708;-76
2022/03/17 06:47:43;;;;;;;78.70;57.60;;;;;;;1.74;86.16;100412.59;105295;1269;62142;-74
2022/03/17 06:50:11;;;;;;;83.70;60.20;;;;;;;1.81;86.11;100419.36;105286;1270;62103;-77
2022/03/17 06:52:38;;;;;;;81.00;60.80;;;;;;;1.94;86.08;100419.08;105292;1269;75743;-76
2022/03/17 06:55:05;;;;;;;84.40;62.80;;;;;;;2.02;85.78;100425.67;105279;1270;69193;-76
2022/03/17 06:57:32;;;;;;;89.60;63.40;;;;;;;2.05;85.37;100429.67;105266;1270;74010;-76
2022/03/17 06:59:58;;;;;;;84.10;61.60;;;;;;;2.10;85.33;100430.49;105274;1270;61982;-76
2022/03/17 07:02:25;;;;;;;82.60;57.80;;;;;;;2.16;85.00;100434.48;105055;1270;62043;-76
2022/03/17 07:04:51;;;;;;;83.20;59.30;;;;;;;2.19;84.66;100439.02;105323;1270;62104;-75
2022/03/17 07:07:18;;;;;;;82.80;57.70;;;;;;;2.23;84.60;100443.34;105060;1270;62078;-76
2022/03/17 07:09:44;;;;;;;84.90;59.40;;;;;;;2.30;84.27;100446.97;105227;1270;62085;-75
2022/03/17 07:12:14;;;;;;;78.30;59.70;;;;;;;2.33;84.05;100445.53;105234;1270;62113;-75
2022/03/17 07:14:40;;;;;;;87.00;63.30;;;;;;;2.38;84.03;100450.73;105272;1270;62178;-76
2022/03/17 07:17:07;;;;;;;86.30;65.60;;;;;;;2.45;84.00;100454.52;105249;1270;61984;-75
2022/03/17 07:19:34;;;;;;;83.70;62.70;;;;;;;2.55;83.84;100457.77;105145;1270;69263;-76
2022/03/17 07:22:02;;;;;;;89.60;62.90;;;;;;;2.57;83.05;100461.23;105305;1269;73285;-77
2022/03/17 07:24:29;;;;;;;80.90;59.70;;;;;;;2.57;83.06;100464.58;105280;1270;62535;-75
2022/03/17 07:26:56;;;;;;;73.90;58.50;;;;;;;2.64;83.16;100466.27;105265;1269;62077;-76
2022/03/17 07:29:22;;;;;;;81.60;59.10;;;;;;;2.74;82.97;100464.73;105333;1270;75136;-75
2022/03/17 07:31:49;;;;;;;84.70;60.70;;;;;;;2.86;83.00;100468.47;105320;1270;62098;-76
2022/03/17 07:34:15;;;;;;;80.20;61.00;;;;;;;2.98;82.85;100464.11;105577;1270;72743;-75
2022/03/17 07:36:44;;;;;;;83.20;63.10;;;;;;;3.11;82.59;100470.27;105310;1269;62095;-75
2022/03/17 07:39:10;;;;;;;88.80;63.00;;;;;;;3.21;82.03;100470.84;105275;1269;62147;-75
2022/03/17 07:41:37;;;;;;;87.40;62.80;;;;;;;3.27;81.36;100469.17;105279;1270;62049;-76
2022/03/17 07:44:04;;;;;;;83.20;59.70;;;;;;;3.27;80.20;100470.23;105303;1270;69116;-75
2022/03/17 07:46:31;;;;;;;82.80;60.30;;;;;;;3.27;80.46;100466.54;105125;1273;72742;-76
2022/03/17 07:48:57;;;;;;;82.60;61.30;;;;;;;3.33;80.38;100470.34;105245;1270;62127;-77
2022/03/17 07:51:24;;;;;;;79.80;60.00;;;;;;;3.41;80.15;100475.14;105301;1270;62079;-76
2022/03/17 07:53:50;;;;;;;84.60;62.40;;;;;;;3.47;80.25;100479.63;105294;1270;62069;-76
2022/03/17 07:56:19;;;;;;;81.80;60.50;;;;;;;3.59;80.42;100481.73;105276;1270;62082;-77
2022/03/17 07:58:49;;;;;;;75.20;56.80;;;;;;;3.72;79.84;100489.63;105323;1269;74303;-77
2022/03/17 08:01:17;;;;;;;77.70;56.80;;;;;;;3.78;78.66;100487.09;104437;1270;1002720;-77
2022/03/17 08:03:44;;;;;;;79.70;59.70;;;;;;;3.81;78.09;100488.78;105554;1270;62052;-77
2022/03/17 08:06:13;;;;;;;82.30;62.30;;;;;;;3.87;77.86;100488.17;105306;1269;75958;-75
2022/03/17 08:08:41;;;;;;;79.10;60.40;;;;;;;3.97;78.49;100489.24;105312;1269;70436;-76
2022/03/17 08:11:08;;;;;;;75.70;57.60;;;;;;;4.12;77.97;100484.61;105283;1269;72878;-75
2022/03/17 08:13:34;;;;;;;73.40;56.40;;;;;;;4.26;77.94;100487.54;105286;1270;62097;-75
2022/03/17 08:16:01;;;;;;;71.50;55.40;;;;;;;4.39;77.23;100485.00;105099;1270;62229;-76
2022/03/17 08:18:29;;;;;;;73.70;55.70;;;;;;;4.51;77.20;100486.20;105282;1269;77195;-77
2022/03/17 08:20:55;;;;;;;72.80;54.40;;;;;;;4.67;77.01;100491.38;105307;1269;69700;-76
2022/03/17 08:23:22;;;;;;;72.10;54.80;;;;;;;4.78;75.22;100493.98;105079;1270;62044;-76
2022/03/17 08:25:51;;;;;;;67.70;53.40;;;;;;;4.80;74.56;100489.19;105083;1271;62301;-77
2022/03/17 08:28:19;;;;;;;69.40;54.60;;;;;;;4.87;75.00;100494.52;105340;1269;62069;-76
2022/03/17 08:30:47;;;;;;;69.80;53.20;;;;;;;4.99;74.47;100484.05;105348;1269;76190;-75
2022/03/17 08:33:14;;;;;;;73.60;51.80;;;;;;;5.07;73.18;100485.48;105407;1270;70274;-75
2022/03/17 08:35:42;;;;;;;65.80;51.00;;;;;;;5.15;73.11;100484.27;105288;1269;73845;-75
2022/03/17 08:38:09;;;;;;;65.00;49.70;;;;;;;5.22;71.65;100483.95;105311;1269;61954;-76
2022/03/17 08:40:38;;;;;;;60.50;46.60;;;;;;;5.28;71.17;100485.75;105315;1270;62101;-76
2022/03/17 08:43:06;;;;;;;63.00;47.60;;;;;;;5.34;70.42;100484.05;105373;1270;76007;-76
2022/03/17 08:51:04;;;;;;;59.70;47.60;;;;;;;5.59;69.42;100476.61;105346;1270;62101;-76
2022/03/17 08:53:31;;;;;;;54.80;41.50;;;;;;;5.71;68.90;100477.58;105180;1271;62091;-77
2022/03/17 08:55:57;;;;;;;51.40;42.00;;;;;;;5.79;67.40;100478.80;105354;1270;75836;-75
2022/03/17 08:58:24;;;;;;;51.70;41.60;;;;;;;5.88;66.16;100473.30;105383;1270;69125;-76
2022/03/17 09:00:50;;;;;;;53.60;39.30;;;;;;;5.97;67.32;100471.15;105305;1270;62089;-75
2022/03/17 09:03:18;;;;;;;49.00;39.90;;;;;;;6.11;66.52;100474.33;105355;1270;62135;-74
2022/03/17 09:05:44;;;;;;;44.10;35.10;;;;;;;6.25;65.54;100475.77;105356;1269;62085;-76
2022/03/17 09:08:11;;;;;;;42.50;33.30;;;;;;;6.33;62.93;100473.81;105387;1270;62188;-76
2022/03/17 09:10:40;;;;;;;42.90;34.10;;;;;;;6.39;63.00;100478.74;105349;1270;69195;-77
2022/03/17 09:13:07;;;;;;;42.90;34.30;;;;;;;6.52;63.01;100474.52;105354;1269;72682;-76
2022/03/17 09:15:40;;;;;;;36.10;28.20;;;;;;;6.64;62.00;100480.77;105354;1270;62062;-76
2022/03/17 09:18:08;;;;;;;33.60;28.10;;;;;;;6.68;58.98;100488.08;105417;1269;62200;-75
2022/03/17 09:20:36;;;;;;;33.30;28.10;;;;;;;6.72;59.23;100486.52;105464;1269;76997;-76
2022/03/17 09:23:02;;;;;;;33.70;25.50;;;;;;;6.79;57.92;100488.11;105497;1270;69462;-76
2022/03/17 09:25:30;;;;;;;32.40;26.90;;;;;;;6.87;57.56;100488.96;105512;1270;73424;-76
2022/03/17 09:27:57;;;;;;;32.60;25.30;;;;;;;6.98;58.41;100483.86;105556;1268;62082;-76
2022/03/17 09:30:24;;;;;;;35.60;27.10;;;;;;;7.10;57.17;100487.24;105618;1269;61995;-75
2022/03/17 09:32:52;;;;;;;34.40;29.10;;;;;;;7.17;56.89;100484.91;106785;1269;76984;-74
2022/03/17 09:35:19;;;;;;;34.70;27.80;;;;;;;7.24;55.38;100481.16;106756;1270;69319;-74
2022/03/17 09:37:45;;;;;;;36.50;28.80;;;;;;;7.33;55.65;100480.92;106665;1268;73180;-75
2022/03/17 09:40:13;;;;;;;37.30;28.50;;;;;;;7.41;54.60;100482.96;106287;1270;62194;-76
2022/03/17 09:42:40;;;;;;;34.80;26.40;;;;;;;7.37;53.13;100480.79;105609;1270;61954;-74
2022/03/17 09:45:09;;;;;;;33.30;27.10;;;;;;;7.42;54.30;100487.52;105167;1271;75929;-75
2022/03/17 09:47:38;;;;;;;32.30;25.20;;;;;;;7.50;53.31;100481.27;105453;1270;69452;-75
2022/03/17 09:50:07;;;;;;;36.40;27.20;;;;;;;7.62;54.85;100485.02;105383;1270;74317;-74
2022/03/17 09:52:36;;;;;;;;;;;;;;;7.76;54.22;100488.09;105180;1270;62184;-76
2022/03/17 09:55:04;;;;;;;32.20;25.60;;;;;;;7.87;54.84;100489.34;105299;1270;62072;-75
2022/03/17 09:57:31;;;;;;;34.80;27.00;;;;;;;8.01;55.03;100486.95;105009;1270;75667;-74
2022/03/17 09:59:58;;;;;;;33.90;27.50;;;;;;;8.11;53.30;100491.05;105326;1269;68398;-75
2022/03/17 10:02:25;;;;;;;30.40;25.60;;;;;;;8.14;53.33;100488.10;105098;1271;73240;-74
2022/03/17 10:04:52;;;;;;;32.10;26.40;;;;;;;8.24;53.10;100485.83;105125;1269;62067;-77
2022/03/17 10:07:23;;;;;;;32.40;27.20;;;;;;;8.36;54.03;100481.36;105304;1270;62122;-75
2022/03/17 10:09:50;;;;;;;32.90;27.30;;;;;;;8.49;52.91;100480.94;105363;1270;76120;-74
2022/03/17 10:12:20;;;;;;;35.10;27.90;;;;;;;8.45;50.46;100482.69;105467;1270;69419;-77
2022/03/17 10:14:53;;;;;;;36.40;29.10;;;;;;;8.42;50.90;100488.09;105361;1270;73222;-75
2022/03/17 10:17:41;;;;;;;33.10;26.40;;;;;;;8.41;51.42;100485.84;105382;1269;62130;-75
2022/03/17 10:20:10;;;;;;;34.40;26.10;;;;;;;8.47;50.63;100487.04;105304;1270;62293;-75
2022/03/17 10:22:42;;;;;;;34.00;28.80;;;;;;;8.44;49.51;100483.95;105298;1270;77197;-75
2022/03/17 10:25:08;;;;;;;32.40;27.40;;;;;;;8.37;50.25;100482.20;105346;1270;70246;-75
2022/03/17 10:27:45;;;;;;;36.10;28.50;;;;;;;8.43;50.83;100481.16;105347;1270;73722;-75
2022/03/17 10:30:21;;;;;;;31.00;25.70;;;;;;;8.50;49.99;100478.07;105424;1270;62510;-75
2022/03/17 10:32:56;;;;;;;28.40;22.80;;;;;;;8.53;49.48;100480.27;105605;1269;61924;-76
2022/03/17 10:35:34;;;;;;;27.80;22.80;;;;;;;8.59;48.61;100479.70;105414;1270;77378;-75
2022/03/17 10:38:11;;;;;;;24.30;20.60;;;;;;;8.67;48.16;100482.25;105255;1270;69401;-75
2022/03/17 10:40:38;;;;;;;25.30;20.50;;;;;;;8.72;47.98;100483.67;105352;1270;74158;-75
2022/03/17 10:43:23;;;;;;;26.20;21.20;;;;;;;8.75;47.22;100481.45;105381;1270;62068;-75
2022/03/17 10:46:07;;;;;;;23.50;20.50;;;;;;;8.85;47.55;100478.42;105589;1270;62608;-75
2022/03/17 10:48:34;;;;;;;25.00;20.20;;;;;;;9.03;48.52;100477.59;105448;1270;76099;-78
2022/03/17 10:51:01;;;;;;;23.20;19.20;;;;;;;9.15;47.89;100474.14;105251;1269;68318;-75
2022/03/17 10:53:29;;;;;;;22.50;19.40;;;;;;;9.20;46.63;100476.09;105358;1270;73188;-76
2022/03/17 10:56:16;;;;;;;24.60;20.60;;;;;;;9.18;46.72;100474.20;105707;1270;62194;-76
2022/03/17 10:58:43;;;;;;;25.10;21.70;;;;;;;9.22;47.07;100467.48;105237;1271;62145;-77
2022/03/17 11:01:10;;;;;;;25.90;21.00;;;;;;;9.30;47.88;100470.38;105322;1270;76477;-75
2022/03/17 11:03:36;;;;;;;22.10;18.70;;;;;;;9.38;46.98;100465.67;105226;1270;68842;-75
2022/03/17 11:06:03;;;;;;;19.50;16.70;;;;;;;9.38;45.59;100474.33;105353;1270;74714;-74
2022/03/17 11:08:31;;;;;;;23.80;17.60;;;;;;;9.36;44.62;100469.81;105377;1270;62193;-75
2022/03/17 11:10:58;;;;;;;20.70;16.30;;;;;;;9.35;45.10;100466.99;105043;1270;62143;-75
2022/03/17 11:13:26;;;;;;;22.10;16.60;;;;;;;9.43;46.15;100467.77;105347;1270;62089;-76
2022/03/17 11:16:08;;;;;;;19.40;16.90;;;;;;;9.55;45.30;100472.45;105186;1270;69104;-75
2022/03/17 11:18:40;;;;;;;19.60;16.60;;;;;;;9.59;44.54;100469.98;105400;1270;74679;-76
2022/03/17 11:21:19;;;;;;;21.40;16.80;;;;;;;9.68;45.19;100472.48;105359;1270;62168;-75